Date,TemperatureHighF,TemperatureAvgF,TemperatureLowF,DewpointHighF,DewpointAvgF,DewpointLowF,HumidityHigh,HumidityAvg,HumidityLow,PressureMaxIn,PressureMinIn,WindSpeedMaxMPH,WindSpeedAvgMPH,GustSpeedMaxMPH,PrecipitationSumIn
2013-1-1,52,43,37,46,39,34,96,87,73,29.66,29.10,0,0,0,0.09
2013-1-2,50,44,36,49,42,34,93,91,84,29.95,29.66,0,0,0,0.00
2013-1-3,56,52,49,51,49,47,93,89,83,30.25,29.94,0,0,0,0.00
2013-1-4,54,50,48,47,46,44,87,83,75,30.27,30.22,0,0,0,0.00
2013-1-5,55,49,45,49,46,42,92,88,79,30.22,30.12,0,0,0,77.38
2013-1-6,49,47,43,46,44,41,93,90,87,30.14,30.01,0,0,0,0.00
2013-1-7,49,47,46,45,44,43,92,89,86,30.01,29.86,0,0,0,0.00
2013-1-8,58,51,46,50,46,42,92,84,72,29.89,29.79,0,0,0,0.02
2013-1-9,50,45,35,48,42,32,94,90,80,29.80,29.68,0,0,0,0.08
2013-1-10,45,40,34,42,37,32,94,89,83,29.68,29.53,0,0,93,0.00
2013-1-11,52,38,33,44,35,31,93,87,72,29.70,29.58,0,0,0,0.00
2013-1-12,42,38,34,36,33,29,94,84,62,29.58,29.45,0,0,0,0.14
2013-1-13,40,37,34,35,30,28,88,77,68,29.75,29.55,0,0,0,0.00
2013-1-14,38,35,33,36,32,29,93,88,81,29.71,29.23,0,0,0,0.16
2013-1-15,40,35,29,35,32,26,92,87,80,29.48,29.22,0,0,0,0.00
2013-1-16,38,31,28,33,28,25,93,90,81,29.64,29.44,0,0,0,0.00
2013-1-17,52,35,26,39,29,23,94,79,59,29.70,29.49,0,0,0,0.00
2013-1-18,35,31,29,28,27,25,91,84,73,29.49,29.02,0,0,0,0.00
2013-1-19,34,32,30,31,29,27,92,88,82,29.07,28.98,0,0,0,0.00
2013-1-20,34,32,30,32,29,27,94,89,83,29.06,28.87,0,0,0,0.00
2013-1-21,43,34,29,37,32,26,95,91,78,29.09,28.85,0,0,0,0.08
2013-1-22,38,32,25,36,29,23,94,89,81,29.28,29.10,0,0,0,0.07
2013-1-23,38,36,34,33,31,30,87,84,79,29.41,29.28,0,0,0,0.00
2013-1-24,37,36,34,32,30,28,90,82,71,29.76,29.40,0,0,0,77.93
2013-1-25,38,36,34,34,30,28,90,79,72,29.74,29.17,0,0,0,0.00
2013-1-26,58,43,35,46,39,32,96,85,62,29.45,29.15,0,0,0,0.14
2013-1-27,59,46,38,48,41,34,94,81,53,29.24,28.86,0,0,0,0.22
2013-1-28,49,43,35,47,40,32,94,86,72,29.44,29.12,0,0,0,0.17
2013-1-29,57,53,48,54,50,46,94,90,87,29.26,29.16,0,0,5,0.02
2013-1-30,63,50,43,52,44,36,96,79,59,29.66,29.11,0,0,0,0.14
2013-1-31,56,48,44,47,40,37,90,76,60,29.67,29.41,0,0,0,0.06
2013-2-1,51,43,37,46,40,35,93,87,79,29.46,29.05,0,0,0,0.25
2013-2-2,53,41,32,38,32,27,92,72,53,29.87,29.19,0,0,0,0.00
2013-2-3,49,41,31,45,36,26,88,83,77,29.88,29.51,0,0,0,0.00
2013-2-4,61,49,42,46,40,34,89,72,46,29.56,29.33,0,0,0,0.00
2013-2-5,56,42,34,39,33,27,88,70,47,29.33,28.93,0,0,0,0.08
2013-2-6,54,41,37,41,34,29,90,76,61,29.68,28.95,0,0,0,0.12
2013-2-7,61,41,31,38,31,25,89,70,39,29.74,29.59,0,0,0,0.04
2013-2-8,57,41,32,42,34,29,95,76,48,29.76,29.63,0,0,0,0.00
2013-2-9,44,39,36,39,35,30,88,83,76,29.77,29.47,0,0,2,0.02
2013-2-10,41,38,32,39,36,31,94,93,89,29.47,28.85,0,0,0,0.37
2013-2-11,37,34,32,36,33,31,96,94,93,29.38,28.87,0,0,0,79.62
2013-2-12,38,36,34,33,31,28,93,82,75,29.75,29.37,0,0,0,0.00
2013-2-13,40,36,34,36,29,25,90,76,63,29.83,29.59,0,0,0,0.00
2013-2-14,64,47,39,52,42,36,96,82,62,29.59,29.34,0,0,0,0.06
2013-2-15,70,47,35,50,38,32,92,72,43,29.82,29.59,0,0,0,0.00
2013-2-16,57,47,38,42,36,33,84,69,47,29.87,29.80,0,0,0,0.00
2013-2-17,66,43,34,46,34,30,92,73,41,29.83,29.70,0,0,0,0.00
2013-2-18,56,41,33,40,33,31,93,75,49,29.76,29.70,0,0,0,0.00
2013-2-19,72,44,30,44,33,26,92,68,35,29.75,29.65,0,0,0,0.00
2013-2-20,45,38,34,37,31,26,90,76,60,29.87,29.71,0,0,0,0.02
2013-2-21,37,34,31,26,22,20,70,62,53,29.88,29.77,0,0,0,0.00
2013-2-22,38,34,32,25,22,20,69,61,56,29.77,29.70,0,0,0,0.02
2013-2-23,39,35,33,29,25,22,73,67,58,29.82,29.69,0,0,0,0.00
2013-2-24,38,35,34,28,27,26,76,70,65,29.89,29.80,0,0,0,0.00
2013-2-25,40,38,35,34,32,27,85,79,72,29.99,29.87,1,0,1,0.00
2013-2-26,41,39,36,39,36,33,92,89,85,30.17,29.98,0,0,0,0.02
2013-2-27,44,39,36,36,34,31,88,80,68,30.19,30.08,0,0,0,0.00
2013-2-28,48,40,35,37,34,31,84,77,64,30.10,29.94,0,0,0,0.00
2013-3-1,47,41,37,42,34,30,91,77,63,30.03,29.97,0,0,0,0.04
2013-3-2,49,39,32,35,30,27,82,70,57,30.02,29.89,0,0,0,79.86
2013-3-3,55,39,30,41,32,26,87,76,54,29.90,29.71,0,0,0,0.00
2013-3-4,58,42,33,39,34,30,90,74,48,29.72,29.33,0,0,1,0.00
2013-3-5,81,52,34,48,38,31,88,63,31,29.33,29.16,0,0,0,0.00
2013-3-6,59,51,46,44,40,37,76,67,57,29.17,29.09,0,0,0,0.00
2013-4-8,40,40,40,40,40,40,100,100,100,0.00,40.00,0,0,0,0.00
2013-4-10,56,50,32,41,39,-11,93,68,50,29.26,29.01,13,3,18,82.13
2013-4-11,65,48,42,49,43,-2,94,83,52,29.09,28.94,19,2,20,0.10
2013-4-12,57,48,43,50,44,-3,94,88,71,29.35,28.88,16,2,17,0.55
2013-4-13,58,49,39,50,45,-3,93,84,61,29.52,29.35,26,3,26,0.15
2013-4-14,73,60,51,51,48,-9,93,69,42,29.57,29.48,24,4,27,0.02
2013-4-15,64,56,48,48,46,-4,84,70,54,29.67,29.55,19,3,22,0.00
2013-4-16,72,56,47,49,44,40,90,67,35,29.70,29.51,20,4,23,0.00
2013-4-17,74,58,48,51,48,44,91,73,43,29.70,29.38,24,3,26,0.00
2013-4-18,62,55,45,50,39,-11,87,57,44,29.70,29.40,29,5,33,0.16
2013-4-19,69,51,43,43,38,32,83,63,29,30.08,29.70,16,2,19,0.00
2013-4-20,68,54,38,35,30,26,74,43,25,30.17,29.98,16,2,16,83.29
2013-4-21,65,49,32,41,34,28,90,59,28,29.98,29.63,13,0,15,0.00
2013-4-22,64,52,43,45,42,37,88,70,40,29.65,29.56,17,1,17,0.02
2013-4-23,82,62,49,51,46,44,91,62,30,29.82,29.59,13,1,13,0.00
2013-4-24,77,60,47,53,49,43,88,68,43,29.87,29.80,14,1,14,0.00
2013-4-25,83,63,50,55,50,46,94,67,30,29.86,29.61,16,1,21,0.00
2013-4-26,55,48,38,47,43,38,100,83,74,29.63,29.60,19,2,19,83.31
2013-4-27,62,48,39,39,36,32,85,65,39,29.71,29.54,23,4,23,83.41
2013-4-28,60,48,32,41,33,28,93,60,34,29.71,29.51,16,1,19,0.00
2013-4-29,67,53,44,41,36,31,84,55,30,29.78,29.49,20,2,20,0.00
2013-4-30,70,51,38,40,35,30,85,58,26,29.91,29.78,18,3,19,0.00
2013-5-1,77,53,39,44,35,29,86,56,20,29.92,29.75,15,2,17,0.00
2013-5-2,78,55,39,35,28,17,67,40,19,29.83,29.75,16,2,18,0.02
2013-5-3,80,58,38,44,38,30,80,51,23,29.79,29.63,13,1,15,0.00
2013-5-4,70,55,45,49,40,34,81,60,30,29.75,29.59,22,2,22,0.00
2013-5-5,69,53,43,49,42,38,86,67,46,29.82,29.74,9,0,9,0.00
2013-5-12,63,55,51,49,44,35,92,68,39,29.63,29.51,16,3,20,83.51
2013-5-13,67,54,46,49,42,35,93,65,34,29.53,29.40,24,1,24,0.04
2013-5-14,58,49,44,47,42,38,93,77,50,29.43,28.80,57,1,57,83.62
2013-5-15,71,50,43,47,39,36,86,68,35,29.14,28.73,11,0,14,0.02
2013-5-16,79,56,37,48,38,33,94,57,27,29.16,29.05,13,0,13,0.00
2013-5-17,59,50,41,46,41,37,89,70,52,29.41,29.15,14,2,17,0.00
2013-5-18,72,56,47,46,42,40,79,62,40,29.40,29.31,9,0,9,0.00
2013-5-19,74,59,47,48,45,42,86,62,39,29.49,29.37,15,2,17,0.00
2013-5-20,64,58,51,56,52,46,88,81,73,29.50,29.43,18,2,21,0.00
2013-5-21,69,57,53,54,49,44,82,74,49,29.67,29.50,19,3,22,0.00
2013-5-22,65,54,46,47,42,33,85,67,40,29.71,29.62,17,2,19,0.00
2013-5-23,62,49,41,38,35,29,75,59,35,29.62,29.49,20,3,22,0.00
2013-5-24,50,44,41,46,39,35,89,83,75,29.62,29.22,11,1,14,0.29
2013-5-25,72,54,40,44,38,34,92,60,29,29.78,29.62,0,0,0,0.02
2013-5-26,80,60,40,42,38,33,86,49,24,29.75,29.56,0,0,0,0.00
2013-5-27,75,58,42,44,38,34,75,50,26,29.56,29.22,0,0,0,0.02
2013-5-28,65,52,48,56,46,39,93,83,59,29.22,29.06,6,0,6,0.69
2013-5-29,63,52,45,51,47,43,93,83,57,29.36,29.15,3,0,6,0.02
2013-5-30,65,55,51,52,50,48,95,83,62,29.60,29.34,0,0,5,0.25
2013-5-31,81,62,52,54,50,47,86,67,37,29.72,29.59,12,1,14,0.00
2013-6-1,79,60,50,48,44,40,77,57,31,29.91,29.72,17,2,17,0.00
2013-6-2,79,61,46,46,41,38,83,52,27,30.05,29.91,13,1,14,85.23
2013-6-3,78,59,44,50,42,38,89,57,29,30.10,30.00,15,2,20,0.00
2013-6-4,80,61,45,45,41,36,77,50,28,30.04,29.80,20,3,21,0.00
2013-6-5,82,61,47,50,45,41,82,59,30,29.83,29.67,14,2,14,0.00
2013-6-6,81,62,47,52,46,42,85,59,36,29.79,29.71,16,3,18,0.00
2013-6-7,79,61,49,54,47,42,84,61,36,29.83,29.76,17,3,19,0.04
2013-6-8,74,59,47,47,44,42,83,60,37,29.83,29.66,20,3,21,0.00
2013-6-9,63,56,50,46,44,41,77,65,52,29.68,29.56,18,1,19,0.00
2013-6-10,72,57,49,48,43,40,75,60,41,29.61,29.55,10,0,10,0.00
2013-6-11,68,55,47,56,47,41,83,76,64,29.58,29.51,0,0,4,0.00
2013-6-12,67,63,57,58,55,53,93,75,63,29.50,29.40,16,1,23,85.27
2013-6-13,72,59,51,54,50,44,92,73,48,29.65,29.38,18,2,22,0.00
2013-6-14,78,60,46,52,47,40,86,63,28,29.67,29.40,17,2,22,0.00
2013-6-15,68,58,50,57,48,43,91,71,43,29.49,29.28,16,1,20,0.32
2013-6-16,85,62,51,53,48,43,86,62,32,29.57,29.48,11,0,14,0.00
2013-6-17,76,63,53,52,48,46,83,61,41,29.57,29.50,0,0,0,0.00
2013-6-18,79,66,55,61,56,49,86,71,50,29.57,29.49,10,0,12,0.00
2013-6-19,92,71,59,64,58,55,91,67,37,29.58,29.49,16,1,18,0.00
2013-6-20,84,67,59,64,58,53,87,73,48,29.55,29.38,10,0,12,85.65
2013-6-21,84,65,56,62,56,52,88,73,45,29.48,29.36,0,0,0,0.03
2013-6-22,68,59,52,56,51,48,93,76,55,29.47,29.26,0,0,0,0.12
2013-6-23,66,59,52,53,50,47,89,73,57,29.64,29.26,0,0,0,0.02
2013-6-24,70,58,50,48,44,41,85,62,39,29.91,29.63,0,0,0,0.00
2013-6-25,85,64,50,50,45,41,81,53,25,30.03,29.91,0,0,0,0.00
2013-6-26,82,65,49,53,47,44,83,56,31,30.05,29.96,0,0,0,0.00
2013-6-27,78,62,53,53,48,44,90,63,33,29.98,29.78,0,0,0,0.02
2013-6-28,75,62,53,64,56,50,93,83,64,29.79,29.64,0,0,0,0.08
2013-6-29,85,67,56,56,48,44,84,55,29,29.85,29.67,0,0,0,0.00
2013-6-30,91,72,57,60,56,49,89,59,31,29.85,29.65,0,0,0,0.00
2013-7-1,80,66,55,53,49,44,82,57,33,29.68,29.58,0,0,0,0.00
2013-7-2,67,60,52,54,49,45,83,69,52,29.60,29.26,0,0,0,0.00
2013-7-3,76,64,56,58,55,51,93,75,47,29.62,29.21,0,0,0,0.08
2013-7-4,88,68,53,63,56,49,88,68,42,29.87,29.62,0,0,0,0.02
2013-7-5,97,70,52,58,53,48,88,58,25,30.02,29.86,0,0,0,0.00
2013-7-6,102,76,55,58,54,49,81,51,23,30.03,29.93,0,0,0,0.00
2013-7-7,98,76,60,62,57,52,88,55,26,30.11,30.01,0,0,0,0.00
2013-7-8,94,73,59,59,54,50,80,55,31,30.13,30.02,0,0,0,0.00
2013-7-9,95,71,55,53,46,39,76,46,18,30.04,29.85,0,0,0,86.02
2013-7-10,84,68,55,57,51,44,74,55,38,29.89,29.82,0,0,0,0.00
2013-7-11,86,65,52,51,47,43,78,55,28,29.91,29.81,0,0,0,0.00
2013-7-12,94,68,53,58,52,46,80,59,29,29.91,29.80,0,0,0,0.00
2013-7-13,103,78,58,63,59,53,85,56,26,29.85,29.80,0,0,0,0.00
2013-7-14,95,77,62,63,57,51,80,53,29,29.85,29.77,0,0,0,0.00
2013-7-15,106,80,63,56,50,44,70,40,14,29.83,29.77,0,0,0,0.00
2013-7-16,102,79,63,61,56,54,73,49,23,29.82,29.76,0,0,0,0.00
2013-7-17,107,80,63,59,56,52,70,45,21,29.88,29.80,0,0,0,0.00
2013-7-18,95,76,63,59,56,50,73,52,27,29.92,29.86,0,0,0,0.00
2013-7-19,91,73,59,58,54,47,71,52,32,29.91,29.81,0,0,0,0.00
2013-7-20,83,69,60,60,57,53,86,68,45,29.86,29.74,0,0,0,0.00
2013-7-21,93,72,62,62,58,52,80,64,35,29.77,29.62,0,0,0,0.00
2013-7-22,103,80,63,66,60,56,88,56,25,29.65,29.55,0,0,0,0.00
2013-7-23,95,76,64,69,63,56,88,66,37,29.56,29.48,0,0,0,0.10
2013-7-24,92,72,58,60,57,54,87,62,34,29.57,29.51,0,0,0,0.00
2013-7-25,93,73,61,65,59,53,93,65,32,29.53,29.47,0,0,0,0.19
2013-7-26,95,74,56,60,54,49,89,55,28,29.52,29.43,0,0,0,0.00
2013-7-27,94,70,57,65,55,48,93,64,28,29.45,29.16,0,0,0,86.31
2013-7-28,83,69,57,60,57,54,93,68,42,29.38,29.18,0,0,0,0.35
2013-7-29,84,68,58,61,57,51,92,71,38,29.57,29.37,0,0,0,0.00
2013-7-30,80,64,58,67,59,55,91,82,56,29.58,29.44,0,0,0,0.14
2013-7-31,81,68,60,64,60,56,86,75,56,29.59,29.54,0,0,0,0.00
2013-8-1,102,80,60,66,62,57,93,59,26,29.54,29.28,0,0,0,0.00
2013-8-2,90,71,62,64,58,54,89,67,36,29.42,29.33,0,0,0,0.09
2013-8-3,85,69,57,59,55,49,92,63,35,29.70,29.40,0,0,0,0.08
2013-8-4,86,68,56,60,54,52,92,65,34,29.72,29.63,0,0,0,0.00
2013-8-5,83,66,59,63,57,53,93,74,46,29.63,29.35,0,0,0,0.26
2013-8-6,94,68,52,60,52,46,95,62,24,29.64,29.50,0,0,0,0.02
2013-8-7,82,67,56,56,50,45,87,58,32,29.63,29.50,0,0,0,0.00
2013-8-8,94,68,51,56,51,46,89,57,25,29.73,29.63,0,0,0,0.00
2013-8-9,88,68,59,64,53,46,91,62,30,29.78,29.62,0,0,0,0.02
2013-8-10,81,66,55,52,47,44,73,53,34,29.81,29.72,0,0,0,0.00
2013-8-11,83,68,58,58,51,45,78,56,30,29.73,29.59,0,0,0,0.00
2013-8-12,75,63,54,54,47,42,81,58,33,29.70,29.59,0,0,0,0.00
2013-8-13,74,60,49,54,48,44,87,67,38,29.82,29.69,0,0,0,0.00
2013-8-14,82,65,50,58,54,48,94,71,39,29.84,29.75,0,0,0,87.63
2013-8-15,87,69,61,67,59,55,93,74,46,29.75,29.60,0,0,0,0.00
2013-8-16,85,67,61,64,60,56,91,78,48,29.61,29.53,0,0,0,0.04
2013-8-17,73,63,55,59,56,53,93,78,54,29.59,29.33,0,0,0,0.00
2013-8-18,81,68,58,60,56,51,93,70,41,29.50,29.31,0,0,0,0.00
2013-8-19,85,66,52,54,49,45,88,57,30,29.92,29.49,0,0,0,0.00
2013-8-20,94,69,53,57,50,46,83,56,25,29.98,29.88,0,0,0,0.00
2013-8-21,94,70,53,58,52,48,87,57,26,29.91,29.74,0,0,0,0.00
2013-8-22,85,66,60,68,60,55,94,83,51,29.76,29.64,0,0,0,0.53
2013-8-23,86,71,59,63,58,53,95,69,37,29.65,29.43,0,0,0,0.00
2013-8-24,68,63,62,63,60,59,94,90,78,29.44,29.39,0,0,0,0.49
2013-8-25,83,68,54,62,58,52,96,73,44,29.64,29.43,0,0,2239,0.06
2013-8-26,90,69,57,60,55,46,92,65,29,29.69,29.62,0,0,0,0.00
2013-8-27,90,64,51,59,50,45,92,65,28,29.72,29.63,0,0,0,0.00
2013-8-28,93,66,50,58,51,46,90,62,25,29.83,29.71,0,0,0,0.00
2013-8-29,90,68,56,59,54,50,86,62,29,29.80,29.72,0,0,0,0.00
2013-8-30,90,69,56,60,57,53,92,67,35,29.75,29.63,0,0,0,0.00
2013-8-31,82,64,54,58,46,39,91,56,26,30.01,29.71,0,0,0,0.00
2013-9-1,78,60,47,50,45,40,79,59,35,30.06,29.93,0,0,0,0.00
2013-9-2,90,67,50,59,53,47,91,65,34,29.96,29.88,0,0,0,89.08
2013-9-3,96,71,56,62,58,53,93,66,31,29.97,29.85,0,0,0,0.00
2013-9-4,98,72,54,61,56,51,92,63,27,29.87,29.58,0,0,0,0.00
2013-9-5,98,72,56,63,56,49,89,62,30,29.58,29.34,0,0,0,0.00
2013-9-6,75,61,54,58,52,48,90,76,45,29.44,29.31,0,0,0,0.14
2013-9-7,76,58,50,55,48,45,89,70,38,29.65,29.43,0,0,0,0.04
2013-9-8,69,55,46,53,47,43,93,75,48,29.67,29.64,0,0,0,0.07
2013-9-9,58,52,46,55,49,43,94,90,83,29.67,29.56,0,0,0,0.24
2013-9-10,67,55,46,51,47,44,95,76,50,29.76,29.65,0,0,0,0.02
2013-9-11,66,57,52,52,48,45,93,74,53,29.78,29.71,0,0,0,0.10
2013-9-12,80,61,54,60,55,52,95,83,49,29.72,29.67,57,1,57,0.10
2013-9-13,71,62,59,65,60,57,96,93,75,29.67,29.45,0,0,0,0.78
2013-9-14,60,52,47,59,49,44,96,88,72,29.68,29.45,0,0,0,0.12
2013-9-15,62,53,43,57,49,41,96,85,54,29.67,29.13,0,0,0,0.08
2013-9-16,64,53,44,48,41,37,87,66,39,29.24,29.16,0,0,0,0.02
2013-9-17,59,53,44,56,47,39,94,82,59,29.25,28.92,0,0,0,0.15
2013-9-18,65,56,46,53,47,41,93,74,49,29.47,28.98,0,0,0,0.02
2013-9-19,64,49,43,51,44,40,90,83,62,29.50,29.38,0,0,0,0.00
2013-10-3,70,62,55,62,58,54,95,89,75,29.44,29.30,57,0,2240,90.98
2013-10-4,75,64,57,62,59,54,94,84,56,29.54,29.26,0,0,0,0.00
2013-10-5,68,60,54,58,55,51,93,83,66,29.85,29.53,0,0,0,0.00
2013-10-6,80,58,46,56,50,44,95,77,39,29.91,29.85,0,0,0,0.00
2013-10-7,75,59,48,57,52,46,95,80,52,29.91,29.84,0,0,0,0.00
2013-10-8,72,62,54,58,56,52,94,81,59,29.89,29.83,0,0,0,0.00
2013-10-9,67,56,45,57,49,37,90,77,55,29.84,29.58,0,0,0,91.02
2013-10-10,55,48,44,41,38,36,79,68,52,29.72,29.60,0,0,0,0.00
2013-10-11,57,51,45,52,47,38,94,85,67,29.72,29.54,57,0,57,0.32
2013-10-12,67,53,46,52,46,41,94,79,45,29.72,29.55,0,0,0,0.13
2013-10-13,52,49,45,50,47,43,95,93,88,29.61,29.37,0,0,0,0.45
2013-10-14,59,49,46,49,46,44,95,89,67,29.38,29.30,0,0,0,0.14
2013-10-15,62,50,44,50,45,42,94,85,65,29.56,29.34,0,0,0,0.00
2013-10-16,71,50,42,61,47,39,96,88,66,29.57,29.28,0,0,0,0.12
2013-10-17,71,57,51,56,52,49,95,83,58,29.61,29.40,0,0,0,0.02
2013-10-18,66,56,49,57,52,47,95,87,71,29.62,29.36,0,0,0,0.00
2013-10-19,71,59,53,60,55,51,93,88,66,29.36,29.22,0,0,0,0.04
2013-10-20,65,56,52,57,53,50,95,89,73,29.34,29.22,0,0,0,0.35
2013-10-21,70,60,54,59,56,52,93,86,67,29.35,29.19,0,0,0,0.02
2013-10-22,66,61,55,59,57,52,93,85,78,29.19,28.90,0,0,0,0.30
2013-10-23,68,57,48,56,51,44,94,82,52,29.45,28.82,0,0,0,0.29
2013-10-24,68,53,42,54,48,40,95,84,60,29.58,29.40,0,0,0,0.00
2013-10-25,68,60,56,60,55,52,95,84,66,29.41,29.18,0,0,0,0.04
2013-10-26,64,59,56,56,54,52,91,83,71,29.29,29.07,0,0,0,0.02
2013-10-27,64,56,52,55,50,47,95,81,59,29.08,28.79,57,1,57,93.34
2013-10-28,59,53,45,58,48,42,96,85,63,29.18,28.47,14,0,14,0.55
2013-10-29,62,48,41,46,41,38,92,79,48,29.67,29.18,0,0,0,0.00
2013-10-30,61,49,37,50,43,35,95,82,61,29.79,29.67,0,0,0,0.00
2013-10-31,56,54,52,52,51,49,94,89,82,29.67,29.54,0,0,0,0.10
2013-11-1,60,54,51,54,50,48,94,88,79,29.54,29.12,61,0,61,0.02
2013-11-2,61,52,48,53,47,40,96,82,66,29.17,28.97,61,0,61,0.02
2013-11-3,57,48,43,45,40,37,95,76,55,29.18,28.60,86,0,86,0.31
2013-11-4,56,44,39,46,39,36,95,83,54,29.08,28.56,0,0,0,0.30
2013-11-5,55,47,39,50,42,35,95,83,65,29.10,28.82,0,0,0,0.33
2013-11-6,61,54,48,56,50,42,94,88,80,29.13,29.06,0,0,0,0.08
2013-11-7,57,50,44,54,45,40,93,83,61,29.38,29.10,0,0,0,0.04
2013-11-8,56,46,40,51,43,38,94,90,78,29.37,29.16,0,0,0,0.33
2013-11-9,50,42,37,47,40,35,95,93,86,29.37,29.20,0,0,0,0.22
2013-11-10,56,42,35,41,37,32,95,83,47,29.89,29.21,0,0,0,0.02
2013-11-11,55,49,35,54,46,32,96,91,82,29.88,29.74,0,0,0,0.11
2013-11-12,56,50,38,54,46,36,96,89,69,30.13,29.74,0,0,0,0.08
2013-11-13,55,43,34,44,38,32,95,85,63,30.19,29.82,0,0,0,0.00
2013-11-14,50,45,38,44,39,34,89,79,64,30.03,29.72,0,0,0,96.18
2013-11-15,55,41,35,40,35,31,90,79,56,30.15,30.02,0,0,0,0.00
2013-11-16,50,41,32,43,37,29,94,87,75,30.14,29.98,0,0,0,0.00
2013-11-17,50,48,45,45,44,42,94,87,82,29.98,29.61,0,0,0,0.02
2013-11-18,50,47,43,48,44,40,95,91,84,29.61,29.35,0,0,0,0.04
2013-11-19,47,38,29,40,32,26,93,80,52,29.66,29.39,0,0,0,0.00
2013-11-20,46,37,28,42,34,25,93,87,75,29.64,28.98,0,0,0,0.16
2013-11-21,50,41,37,39,36,33,93,82,54,29.52,28.99,0,0,0,0.00
2013-11-22,50,41,36,37,35,32,92,80,59,29.77,29.52,0,0,0,0.00
2013-11-23,49,41,35,40,37,33,94,86,71,29.92,29.75,0,0,0,0.00
2013-11-24,48,44,40,42,38,35,87,81,71,30.18,29.91,0,0,0,0.00
2013-11-25,46,42,39,38,36,35,87,80,70,30.30,30.17,0,0,0,0.00
2013-11-26,50,42,34,38,34,30,88,76,59,30.33,30.19,0,0,0,0.00
2013-11-27,53,46,42,48,43,38,92,88,81,30.19,30.09,0,0,0,0.00
2013-11-28,51,48,46,46,44,43,90,86,80,30.18,30.12,0,0,0,0.00
2013-11-29,51,46,42,43,40,36,90,80,66,30.13,29.78,0,0,0,0.00
2013-11-30,48,43,36,40,36,33,88,77,72,30.08,29.79,0,0,0,0.00
2013-12-1,55,43,34,44,38,31,90,84,66,30.18,30.05,0,0,0,0.00
2013-12-2,52,46,42,44,41,37,90,82,71,30.18,30.06,0,0,0,0.00
2013-12-3,46,43,41,40,36,34,85,76,71,30.06,29.93,0,0,0,96.40
2013-12-4,48,42,34,43,36,31,91,81,63,30.11,29.91,0,0,0,0.00
2013-12-5,50,41,32,44,34,29,92,78,55,30.10,29.63,0,0,0,0.02
2013-12-6,48,41,34,41,34,29,89,76,63,30.00,29.85,0,0,0,0.00
2013-12-7,49,45,43,43,41,40,90,86,77,29.97,29.88,0,0,0,0.00
2013-12-8,56,46,39,46,42,36,92,85,68,29.93,29.85,0,0,0,0.00
2013-12-9,53,45,38,47,42,36,95,90,78,30.02,29.92,0,0,0,0.00
2013-12-10,50,42,34,46,39,32,95,90,80,30.08,30.01,0,0,0,0.02
2013-12-11,41,34,31,38,32,30,95,93,90,30.05,29.92,0,0,0,0.00
2013-12-12,49,41,31,47,39,29,96,93,89,29.92,29.80,0,0,0,0.00
2013-12-13,54,50,44,48,46,41,94,88,76,29.80,29.63,0,0,0,0.08
2013-12-14,53,46,38,47,42,35,93,85,71,29.92,29.66,0,0,0,0.05
2013-12-15,53,51,45,52,49,43,95,92,87,29.78,29.59,5,0,57,0.16
2013-12-16,55,51,43,52,49,42,95,93,87,29.73,29.54,0,0,0,0.39
2013-12-17,45,42,39,44,40,38,96,93,86,29.88,29.57,57,0,57,0.22
2013-12-18,50,46,40,47,44,39,96,91,82,29.58,28.88,0,0,0,0.18
2013-12-19,51,43,36,45,38,34,93,84,59,29.46,28.90,0,0,0,0.11
2013-12-20,51,43,36,45,39,34,94,84,67,29.79,29.46,0,0,0,0.00
2013-12-21,53,50,47,50,47,42,95,90,75,29.67,29.31,0,0,0,97.75
2013-12-22,52,46,39,44,39,34,88,78,57,29.53,29.32,0,0,0,0.00
2013-12-23,52,47,40,50,44,35,94,89,82,29.53,28.44,0,0,0,0.47
2013-12-24,51,46,40,49,42,37,94,87,76,28.57,28.37,7,0,7,0.49
2013-12-25,46,39,36,42,37,34,94,91,83,28.75,28.50,0,0,0,0.08
2013-12-26,47,39,36,42,37,34,95,92,77,29.09,28.74,0,0,0,0.02
2013-12-27,51,47,43,49,42,36,95,81,69,28.85,28.58,7,0,57,0.11
2013-12-28,49,41,34,38,35,32,92,81,66,29.31,28.84,0,0,0,0.00
2013-12-29,49,38,31,41,35,29,95,87,67,29.70,29.30,0,0,0,0.00
2013-12-30,51,47,42,47,43,40,93,88,77,29.62,29.26,57,0,57,0.12
2013-12-31,51,46,41,47,43,37,94,90,83,29.46,29.13,0,0,0,0.12
2014-1-1,51,47,42,49,44,38,94,91,85,29.18,28.61,0,0,0,0.47
2014-1-2,53,47,42,47,43,40,95,87,70,29.04,28.64,0,0,0,0.20